Time;durP1;ratioP1;P1;durP2;ratioP2;P2;SDS_P1;SDS_P2;PMS_P1;PMS_P2;Temp;Humidity;BMP_temperature;BMP_pressure;BME280_temperature;BME280_humidity;BME280_pressure;Samples;Min_cycle;Max_cycle;Signal;HPM_P1;HPM_P2
2022/08/20 00:01:34;;;;;;;2.27;2.07;;;;;;;;;;5011852;28;20174;-80
2022/08/20 00:03:59;;;;;;;2.40;2.20;;;;;;;;;;5008870;28;20182;-81
2022/08/20 00:06:24;;;;;;;3.27;1.90;;;;;;;;;;5009341;28;20183;-80
2022/08/20 00:08:50;;;;;;;2.10;1.93;;;;;;;;;;5006695;28;20190;-80
2022/08/20 00:11:17;;;;;;;2.50;2.30;;;;;;;;;;5011310;28;20194;-80
2022/08/20 00:13:44;;;;;;;1.80;1.70;;;;;;;;;;5011629;28;20178;-81
2022/08/20 00:16:10;;;;;;;2.17;2.07;;;;;;;;;;5009462;28;20180;-79
2022/08/20 00:18:38;;;;;;;1.80;1.70;;;;;;;;;;5006379;28;20187;-80
2022/08/20 00:21:06;;;;;;;2.13;1.90;;;;;;;;;;5009110;28;20181;-81
2022/08/20 00:23:32;;;;;;;1.97;1.83;;;;;;;;;;5010004;28;20545;-79
2022/08/20 00:25:57;;;;;;;2.10;1.90;;;;;;;;;;5008974;28;20231;-80
2022/08/20 00:28:22;;;;;;;3.13;1.80;;;;;;;;;;5006114;28;20426;-80
2022/08/20 00:30:48;;;;;;;2.17;1.97;;;;;;;;;;5024967;28;20231;-80
2022/08/20 00:33:15;;;;;;;2.27;2.00;;;;;;;;;;5008178;28;20182;-80
2022/08/20 00:35:48;;;;;;;2.40;2.20;;;;;;;;;;5008842;28;20715;-80
2022/08/20 00:38:14;;;;;;;4.60;2.43;;;;;;;;;;5006637;28;20202;-80
2022/08/20 00:40:41;;;;;;;2.37;2.10;;;;;;;;;;5001640;28;20182;-81
2022/08/20 00:43:22;;;;;;;3.00;2.20;;;;;;;;;;5004538;28;20237;-81
2022/08/20 00:45:47;;;;;;;2.57;2.37;;;;;;;;;;5006895;28;20179;-80
2022/08/20 00:48:12;;;;;;;2.20;2.10;;;;;;;;;;5004837;28;20182;-81
2022/08/20 00:50:38;;;;;;;3.17;2.27;;;;;;;;;;5008557;28;20211;-79
2022/08/20 00:53:04;;;;;;;2.27;2.07;;;;;;;;;;5006935;28;20218;-80
2022/08/20 00:55:29;;;;;;;2.43;2.17;;;;;;;;;;5009576;28;20224;-80
2022/08/20 00:57:58;;;;;;;2.03;1.93;;;;;;;;;;5008768;28;20222;-81
2022/08/20 01:00:25;;;;;;;2.70;2.50;;;;;;;;;;5008463;28;20193;-79
2022/08/20 01:02:51;;;;;;;2.47;2.27;;;;;;;;;;5007439;28;20189;-79
2022/08/20 01:05:17;;;;;;;2.50;2.30;;;;;;;;;;5025182;28;20174;-81
2022/08/20 01:07:43;;;;;;;3.93;2.43;;;;;;;;;;5007951;28;20189;-81
2022/08/20 01:10:09;;;;;;;2.63;2.43;;;;;;;;;;5022684;28;20183;-80
2022/08/20 01:12:36;;;;;;;3.53;2.50;;;;;;;;;;5028230;28;20184;-81
2022/08/20 01:15:02;;;;;;;2.50;2.30;;;;;;;;;;5007397;28;20205;-80
2022/08/20 01:17:31;;;;;;;2.37;2.17;;;;;;;;;;5010222;28;20304;-80
2022/08/20 01:20:05;;;;;;;3.00;2.80;;;;;;;;;;5005128;28;20181;-80
2022/08/20 01:25:24;;;;;;;2.87;2.67;;;;;;;;;;5011813;28;20194;-81
2022/08/20 01:27:50;;;;;;;3.87;2.97;;;;;;;;;;5013499;28;20325;-80
2022/08/20 01:30:16;;;;;;;3.37;3.07;;;;;;;;;;5009619;28;20274;-80
2022/08/20 01:32:41;;;;;;;3.27;2.83;;;;;;;;;;5002845;28;20311;-80
2022/08/20 01:35:07;;;;;;;3.53;2.63;;;;;;;;;;5014502;28;20214;-81
2022/08/20 01:37:32;;;;;;;3.47;2.50;;;;;;;;;;5005607;28;20296;-80
2022/08/20 01:39:58;;;;;;;2.93;2.73;;;;;;;;;;5008718;28;20180;-79
2022/08/20 01:42:27;;;;;;;3.53;3.23;;;;;;;;;;5008328;28;20183;-80
2022/08/20 01:44:52;;;;;;;3.27;3.00;;;;;;;;;;5010441;28;20185;-81
2022/08/20 01:47:19;;;;;;;3.00;2.80;;;;;;;;;;5009402;28;20196;-79
2022/08/20 01:49:48;;;;;;;3.07;2.87;;;;;;;;;;5012615;28;20245;-81
2022/08/20 01:52:16;;;;;;;3.33;3.03;;;;;;;;;;5016362;28;20178;-80
2022/08/20 01:54:41;;;;;;;4.47;3.50;;;;;;;;;;5008286;28;20337;-78
2022/08/20 01:57:17;;;;;;;3.50;3.30;;;;;;;;;;5027103;28;20277;-80
2022/08/20 01:59:42;;;;;;;4.73;3.43;;;;;;;;;;5012334;28;20179;-80
2022/08/20 02:02:08;;;;;;;3.77;3.47;;;;;;;;;;5009838;28;20182;-79
2022/08/20 02:04:34;;;;;;;3.70;3.50;;;;;;;;;;5011816;28;20176;-81
2022/08/20 02:07:01;;;;;;;3.97;3.67;;;;;;;;;;5010521;28;20183;-80
2022/08/20 02:09:31;;;;;;;4.10;3.80;;;;;;;;;;5007669;28;20234;-80
2022/08/20 02:11:57;;;;;;;4.53;4.23;;;;;;;;;;5008686;28;20191;-80
2022/08/20 02:14:24;;;;;;;4.27;3.97;;;;;;;;;;5009581;28;20187;-81
2022/08/20 02:16:49;;;;;;;3.87;3.60;;;;;;;;;;5010571;28;20199;-81
2022/08/20 02:19:35;;;;;;;10.40;4.07;;;;;;;;;;5008449;28;20194;-79
2022/08/20 02:22:05;;;;;;;4.33;3.83;;;;;;;;;;5009282;28;20214;-80
2022/08/20 02:24:30;;;;;;;4.50;4.20;;;;;;;;;;5011663;28;20174;-80
2022/08/20 02:26:55;;;;;;;4.70;4.40;;;;;;;;;;5011401;28;20193;-81
2022/08/20 02:29:21;;;;;;;5.30;4.30;;;;;;;;;;5005434;28;20192;-80
2022/08/20 02:31:46;;;;;;;4.50;4.20;;;;;;;;;;5011570;28;20197;-81
2022/08/20 02:34:12;;;;;;;5.03;4.50;;;;;;;;;;5011218;28;20228;-81
2022/08/20 02:36:38;;;;;;;4.17;3.80;;;;;;;;;;5013117;28;20206;-80
2022/08/20 02:39:08;;;;;;;5.07;4.57;;;;;;;;;;5009918;28;20184;-80
2022/08/20 02:41:34;;;;;;;5.10;4.60;;;;;;;;;;5011235;28;20241;-81
2022/08/20 02:43:59;;;;;;;4.60;4.27;;;;;;;;;;5008580;28;20274;-81
2022/08/20 02:46:27;;;;;;;4.67;4.27;;;;;;;;;;5021631;28;20272;-81
2022/08/20 02:48:52;;;;;;;5.93;5.33;;;;;;;;;;5010944;28;20174;-80
2022/08/20 02:51:17;;;;;;;5.13;4.73;;;;;;;;;;5011575;28;20207;-81
2022/08/20 02:53:43;;;;;;;4.83;4.40;;;;;;;;;;5012038;28;20233;-81
2022/08/20 02:56:18;;;;;;;5.07;4.67;;;;;;;;;;5011210;28;20178;-79
2022/08/20 02:58:44;;;;;;;5.10;4.70;;;;;;;;;;5009681;28;20232;-80
2022/08/20 03:01:11;;;;;;;5.20;4.80;;;;;;;;;;5008943;28;20194;-80
2022/08/20 03:03:37;;;;;;;5.83;5.07;;;;;;;;;;5008377;28;20194;-80
2022/08/20 03:06:03;;;;;;;5.60;5.20;;;;;;;;;;5015953;28;20229;-81
2022/08/20 03:08:28;;;;;;;6.83;5.10;;;;;;;;;;5009747;28;20202;-80
2022/08/20 03:10:53;;;;;;;6.13;5.40;;;;;;;;;;5010867;28;20262;-80
2022/08/20 03:13:19;;;;;;;6.00;5.40;;;;;;;;;;5011707;28;20198;-80
2022/08/20 03:15:49;;;;;;;6.73;6.13;;;;;;;;;;5010763;28;20196;-81
2022/08/20 03:18:15;;;;;;;6.53;6.03;;;;;;;;;;5006226;28;20220;-80
2022/08/20 03:20:40;;;;;;;8.07;7.47;;;;;;;;;;5015193;28;20269;-80
2022/08/20 03:23:06;;;;;;;7.63;6.93;;;;;;;;;;5014997;28;20190;-79
2022/08/20 03:25:32;;;;;;;7.90;6.80;;;;;;;;;;5011278;28;20174;-81
2022/08/20 03:27:57;;;;;;;7.17;6.53;;;;;;;;;;5008123;28;20197;-80
2022/08/20 03:30:24;;;;;;;6.87;6.27;;;;;;;;;;5008188;28;20199;-80
2022/08/20 03:32:49;;;;;;;6.40;5.90;;;;;;;;;;5006354;28;20186;-79
2022/08/20 03:35:15;;;;;;;6.90;6.30;;;;;;;;;;5023124;28;20209;-80
2022/08/20 03:37:41;;;;;;;6.93;6.43;;;;;;;;;;5009556;28;20305;-81
2022/08/20 03:40:12;;;;;;;7.70;6.67;;;;;;;;;;5012602;28;20185;-81
2022/08/20 03:42:38;;;;;;;7.63;6.97;;;;;;;;;;5010727;28;20190;-81
2022/08/20 03:45:04;;;;;;;7.00;6.40;;;;;;;;;;5009763;28;20245;-80
2022/08/20 03:47:29;;;;;;;6.83;6.13;;;;;;;;;;5022294;28;20346;-80
2022/08/20 03:49:58;;;;;;;9.73;6.03;;;;;;;;;;5007414;28;20185;-80
2022/08/20 03:52:24;;;;;;;7.00;6.40;;;;;;;;;;5006420;28;20195;-81
2022/08/20 03:54:49;;;;;;;6.67;6.07;;;;;;;;;;5010772;28;20261;-80
2022/08/20 03:57:15;;;;;;;6.60;6.10;;;;;;;;;;5006855;28;20214;-81
2022/08/20 03:59:41;;;;;;;9.17;6.77;;;;;;;;;;5008928;28;20217;-80
2022/08/20 04:02:06;;;;;;;7.77;6.60;;;;;;;;;;5009358;28;20189;-79
2022/08/20 04:04:31;;;;;;;7.60;6.83;;;;;;;;;;5011104;28;20177;-80
2022/08/20 04:06:57;;;;;;;6.60;6.00;;;;;;;;;;5012135;28;20193;-81
2022/08/20 04:09:22;;;;;;;8.70;6.77;;;;;;;;;;5007905;28;20277;-80
2022/08/20 04:11:48;;;;;;;7.50;6.70;;;;;;;;;;5016769;28;20184;-81
2022/08/20 04:14:13;;;;;;;7.87;7.07;;;;;;;;;;5008066;28;20220;-79
2022/08/20 04:16:39;;;;;;;6.97;5.87;;;;;;;;;;5024890;28;20210;-80
2022/08/20 04:19:05;;;;;;;7.47;6.77;;;;;;;;;;5009579;28;20178;-81
2022/08/20 04:21:30;;;;;;;6.77;6.00;;;;;;;;;;5008027;28;20180;-80
2022/08/20 04:23:56;;;;;;;6.60;6.00;;;;;;;;;;5007062;28;20214;-80
2022/08/20 04:26:21;;;;;;;6.43;5.90;;;;;;;;;;5005935;28;20187;-79
2022/08/20 04:28:46;;;;;;;10.90;6.73;;;;;;;;;;5007651;28;20273;-80
2022/08/20 04:31:13;;;;;;;6.97;6.07;;;;;;;;;;5008672;28;20191;-80
2022/08/20 04:33:38;;;;;;;8.43;7.23;;;;;;;;;;5009938;28;20208;-81
2022/08/20 04:36:04;;;;;;;7.23;6.63;;;;;;;;;;5006801;28;20177;-80
2022/08/20 04:38:30;;;;;;;6.73;6.13;;;;;;;;;;5004271;28;20246;-80
2022/08/20 04:40:59;;;;;;;7.03;6.43;;;;;;;;;;5007183;28;20186;-81
2022/08/20 04:43:25;;;;;;;6.00;5.50;;;;;;;;;;5018842;28;20183;-80
2022/08/20 04:45:53;;;;;;;7.07;6.37;;;;;;;;;;5009888;28;20183;-80
2022/08/20 04:48:19;;;;;;;7.53;6.73;;;;;;;;;;5008687;28;20182;-80
2022/08/20 04:50:45;;;;;;;7.40;6.70;;;;;;;;;;5008569;28;20209;-79
2022/08/20 04:53:11;;;;;;;7.40;6.67;;;;;;;;;;5007445;28;20184;-80
2022/08/20 04:55:39;;;;;;;7.07;6.37;;;;;;;;;;5009240;28;20244;-80
2022/08/20 04:58:05;;;;;;;8.77;6.57;;;;;;;;;;5003416;28;20226;-81
2022/08/20 05:00:30;;;;;;;7.83;6.50;;;;;;;;;;5010919;28;20179;-78
2022/08/20 05:02:56;;;;;;;8.80;7.10;;;;;;;;;;5010605;28;20212;-80
2022/08/20 05:05:21;;;;;;;8.67;6.50;;;;;;;;;;5007757;28;20191;-80
2022/08/20 05:07:46;;;;;;;7.57;6.87;;;;;;;;;;5008602;28;20174;-80
2022/08/20 05:10:13;;;;;;;8.57;7.70;;;;;;;;;;5006561;28;20182;-80
2022/08/20 05:12:39;;;;;;;7.83;7.13;;;;;;;;;;5008074;28;20182;-80
2022/08/20 05:15:04;;;;;;;7.47;6.87;;;;;;;;;;5005343;28;20191;-81
2022/08/20 05:17:29;;;;;;;8.17;7.37;;;;;;;;;;5010860;28;20200;-80
2022/08/20 05:19:56;;;;;;;7.57;6.87;;;;;;;;;;5008847;28;20208;-81
2022/08/20 05:22:22;;;;;;;7.43;6.70;;;;;;;;;;5012363;28;20239;-80
2022/08/20 05:24:47;;;;;;;7.30;6.60;;;;;;;;;;5013930;28;20172;-80
2022/08/20 05:27:13;;;;;;;7.13;6.50;;;;;;;;;;5029350;28;20173;-80
2022/08/20 05:29:38;;;;;;;7.30;6.07;;;;;;;;;;5004865;28;20211;-80
2022/08/20 05:32:03;;;;;;;7.30;6.60;;;;;;;;;;5009853;28;20223;-80
2022/08/20 05:34:29;;;;;;;7.30;6.63;;;;;;;;;;5009948;28;20200;-81
2022/08/20 05:36:54;;;;;;;7.63;6.93;;;;;;;;;;5011144;28;20471;-80
2022/08/20 05:39:20;;;;;;;7.33;6.73;;;;;;;;;;5010790;28;20248;-80
2022/08/20 05:41:48;;;;;;;6.27;5.77;;;;;;;;;;5011040;28;20176;-80
2022/08/20 05:44:13;;;;;;;7.47;6.87;;;;;;;;;;5014176;28;20188;-79
2022/08/20 05:46:39;;;;;;;6.73;6.13;;;;;;;;;;5014129;28;20232;-81
2022/08/20 05:49:05;;;;;;;6.97;6.10;;;;;;;;;;5007846;28;20263;-81
2022/08/20 05:51:31;;;;;;;8.73;5.90;;;;;;;;;;5014267;28;20179;-80
2022/08/20 05:53:56;;;;;;;6.53;5.83;;;;;;;;;;5011570;28;20193;-81
2022/08/20 05:56:22;;;;;;;6.93;6.30;;;;;;;;;;5008875;28;20178;-80
2022/08/20 05:58:47;;;;;;;7.00;6.30;;;;;;;;;;5007982;28;20221;-79
2022/08/20 06:01:13;;;;;;;7.67;6.33;;;;;;;;;;5011367;28;20174;-80
2022/08/20 06:06:22;;;;;;;6.40;5.57;;;;;;;;;;5007589;28;20205;-80
2022/08/20 06:08:47;;;;;;;6.77;6.00;;;;;;;;;;5010676;28;20177;-79
2022/08/20 06:11:12;;;;;;;6.70;6.10;;;;;;;;;;5016503;28;20186;-80
2022/08/20 06:13:37;;;;;;;7.67;6.87;;;;;;;;;;5011018;28;20192;-80
2022/08/20 06:16:03;;;;;;;7.90;7.20;;;;;;;;;;5013399;28;20186;-81
2022/08/20 06:18:28;;;;;;;7.40;6.57;;;;;;;;;;5006425;28;20206;-80
2022/08/20 06:20:53;;;;;;;8.03;7.33;;;;;;;;;;5012697;28;20259;-81
2022/08/20 06:23:19;;;;;;;7.23;6.63;;;;;;;;;;5009361;28;20222;-79
2022/08/20 06:25:44;;;;;;;7.57;6.87;;;;;;;;;;5006945;28;20184;-80
2022/08/20 06:28:12;;;;;;;7.97;6.97;;;;;;;;;;5012639;28;20209;-81
2022/08/20 06:30:37;;;;;;;7.43;6.83;;;;;;;;;;5002904;28;20354;-81
2022/08/20 06:33:02;;;;;;;6.90;6.30;;;;;;;;;;5004922;28;20199;-80
2022/08/20 06:35:28;;;;;;;6.90;6.20;;;;;;;;;;5017633;28;20217;-81
2022/08/20 06:37:53;;;;;;;7.37;6.47;;;;;;;;;;5005140;28;20214;-81
2022/08/20 06:40:21;;;;;;;6.97;6.03;;;;;;;;;;5005310;28;20186;-81
2022/08/20 06:42:47;;;;;;;6.20;5.60;;;;;;;;;;5007317;28;20186;-79
2022/08/20 06:45:13;;;;;;;6.20;5.43;;;;;;;;;;5008380;28;20197;-81
2022/08/20 06:47:40;;;;;;;6.93;6.43;;;;;;;;;;5007501;28;20184;-80
2022/08/20 06:50:13;;;;;;;6.60;6.10;;;;;;;;;;5010319;28;20249;-80
2022/08/20 06:52:39;;;;;;;6.10;5.60;;;;;;;;;;5026351;28;20225;-81
2022/08/20 06:55:06;;;;;;;6.27;5.70;;;;;;;;;;5009495;28;20291;-80
2022/08/20 06:57:31;;;;;;;5.93;5.43;;;;;;;;;;5020586;28;20238;-81
2022/08/20 06:59:57;;;;;;;6.23;5.77;;;;;;;;;;5007068;28;20181;-80
2022/08/20 07:02:23;;;;;;;5.30;4.90;;;;;;;;;;5027199;28;20193;-81
2022/08/20 07:04:49;;;;;;;5.73;5.23;;;;;;;;;;5010538;28;20182;-81
2022/08/20 07:07:16;;;;;;;6.43;5.93;;;;;;;;;;5010887;28;20183;-81
2022/08/20 07:09:42;;;;;;;6.20;5.70;;;;;;;;;;5022114;28;20224;-80
2022/08/20 07:12:08;;;;;;;6.37;5.83;;;;;;;;;;5025325;28;20222;-80
2022/08/20 07:14:34;;;;;;;6.30;5.70;;;;;;;;;;5003907;28;20187;-80
2022/08/20 07:17:01;;;;;;;6.00;5.43;;;;;;;;;;5006951;28;20201;-80
2022/08/20 07:19:26;;;;;;;5.30;4.90;;;;;;;;;;5010767;28;20190;-80
2022/08/20 07:21:52;;;;;;;5.57;5.17;;;;;;;;;;5008404;28;20246;-81
2022/08/20 07:24:17;;;;;;;6.13;5.63;;;;;;;;;;5010681;28;20172;-81
2022/08/20 07:26:42;;;;;;;5.50;5.10;;;;;;;;;;5006998;28;20214;-80
2022/08/20 07:29:07;;;;;;;4.70;4.40;;;;;;;;;;5008120;28;20203;-81
2022/08/20 07:34:16;;;;;;;5.63;5.07;;;;;;;;;;5007583;28;20321;-81
2022/08/20 07:36:42;;;;;;;4.73;4.33;;;;;;;;;;5010710;28;20258;-79
2022/08/20 07:39:08;;;;;;;5.40;5.00;;;;;;;;;;5009649;28;20174;-80
2022/08/20 07:41:33;;;;;;;5.17;4.70;;;;;;;;;;5014112;28;20233;-80
2022/08/20 07:43:58;;;;;;;4.83;4.43;;;;;;;;;;5010468;28;20180;-81
2022/08/20 07:46:24;;;;;;;5.13;4.73;;;;;;;;;;5012973;28;20337;-81
2022/08/20 07:48:50;;;;;;;4.90;4.40;;;;;;;;;;5003832;28;20184;-81
2022/08/20 07:51:17;;;;;;;4.80;4.50;;;;;;;;;;5004012;28;20182;-81
2022/08/20 07:53:43;;;;;;;5.00;4.60;;;;;;;;;;5009729;28;20188;-81
2022/08/20 07:56:10;;;;;;;4.80;4.40;;;;;;;;;;5005319;28;20181;-81
2022/08/20 07:58:37;;;;;;;5.17;4.30;;;;;;;;;;5024328;28;20311;-81
2022/08/20 08:01:03;;;;;;;4.93;4.43;;;;;;;;;;5007346;28;20196;-81
2022/08/20 08:03:30;;;;;;;4.30;3.83;;;;;;;;;;5009380;28;20184;-80
2022/08/20 08:05:55;;;;;;;4.23;3.83;;;;;;;;;;5006888;28;20173;-81
2022/08/20 08:08:22;;;;;;;4.43;4.03;;;;;;;;;;5005204;28;20190;-81
2022/08/20 08:10:49;;;;;;;4.53;4.13;;;;;;;;;;5005012;28;20251;-81
2022/08/20 08:13:14;;;;;;;4.37;4.07;;;;;;;;;;5005164;28;20186;-80
2022/08/20 08:15:43;;;;;;;3.73;3.43;;;;;;;;;;5025263;28;20200;-80
2022/08/20 08:18:10;;;;;;;4.10;3.80;;;;;;;;;;5021931;28;20329;-81
2022/08/20 08:20:39;;;;;;;3.70;3.33;;;;;;;;;;5006957;28;20180;-81
2022/08/20 08:23:04;;;;;;;3.80;3.50;;;;;;;;;;5002912;28;20223;-79
2022/08/20 08:25:31;;;;;;;4.30;4.00;;;;;;;;;;5000145;28;20264;-80
2022/08/20 08:27:59;;;;;;;3.50;3.20;;;;;;;;;;5026049;28;20220;-82
2022/08/20 08:30:24;;;;;;;4.00;3.70;;;;;;;;;;5005633;28;20185;-81
2022/08/20 08:35:36;;;;;;;3.90;3.60;;;;;;;;;;5009805;28;20192;-78
2022/08/20 08:38:01;;;;;;;3.90;3.60;;;;;;;;;;5008808;28;20215;-79
2022/08/20 08:40:28;;;;;;;4.27;3.87;;;;;;;;;;5024731;28;20173;-83
2022/08/20 08:42:56;;;;;;;3.93;3.63;;;;;;;;;;5006592;28;20185;-82
2022/08/20 08:45:23;;;;;;;3.77;3.47;;;;;;;;;;5010164;28;20175;-81
2022/08/20 08:47:48;;;;;;;3.80;3.50;;;;;;;;;;5011360;28;20179;-81
2022/08/20 08:50:21;;;;;;;3.63;3.33;;;;;;;;;;5011059;28;20161;-81
2022/08/20 08:52:49;;;;;;;3.80;3.50;;;;;;;;;;5008152;28;20193;-82
2022/08/20 08:55:18;;;;;;;5.17;4.77;;;;;;;;;;5011585;28;20180;-81
2022/08/20 08:57:45;;;;;;;3.50;3.20;;;;;;;;;;5017733;28;20238;-82
2022/08/20 09:00:14;;;;;;;4.13;3.83;;;;;;;;;;5009184;28;20175;-81
2022/08/20 09:02:51;;;;;;;4.40;4.00;;;;;;;;;;5010856;28;20192;-83
2022/08/20 09:05:19;;;;;;;4.23;3.93;;;;;;;;;;5020027;28;20172;-81
2022/08/20 09:07:47;;;;;;;4.03;3.73;;;;;;;;;;5005554;28;20180;-81
2022/08/20 09:10:12;;;;;;;4.50;4.10;;;;;;;;;;5022312;28;20251;-80
2022/08/20 09:12:37;;;;;;;4.43;4.03;;;;;;;;;;5001847;28;20184;-82
2022/08/20 09:15:03;;;;;;;4.47;4.17;;;;;;;;;;5024208;28;20185;-81
2022/08/20 09:17:28;;;;;;;3.80;3.50;;;;;;;;;;5009455;28;20278;-80
2022/08/20 09:19:53;;;;;;;3.53;3.23;;;;;;;;;;5008259;28;20188;-81
2022/08/20 09:22:20;;;;;;;2.70;2.50;;;;;;;;;;5010600;28;20173;-81
2022/08/20 09:24:45;;;;;;;3.33;2.67;;;;;;;;;;5017405;28;20176;-81
2022/08/20 09:27:11;;;;;;;2.90;2.70;;;;;;;;;;5003674;28;20181;-78
2022/08/20 09:29:37;;;;;;;2.47;2.23;;;;;;;;;;5006035;28;20177;-82
2022/08/20 09:32:05;;;;;;;2.77;2.37;;;;;;;;;;5005334;28;20211;-82
2022/08/20 09:34:33;;;;;;;2.73;2.53;;;;;;;;;;5005702;28;20214;-82
2022/08/20 09:36:59;;;;;;;2.30;2.17;;;;;;;;;;5008320;28;20350;-82
2022/08/20 09:39:24;;;;;;;2.00;1.90;;;;;;;;;;5005629;28;20256;-82
2022/08/20 09:41:49;;;;;;;2.50;2.30;;;;;;;;;;5010006;28;20207;-82
2022/08/20 09:44:15;;;;;;;3.10;2.60;;;;;;;;;;5004911;28;20187;-83
2022/08/20 09:46:40;;;;;;;3.07;2.47;;;;;;;;;;5008909;28;20186;-80
2022/08/20 09:49:06;;;;;;;2.60;2.40;;;;;;;;;;5006381;28;20178;-80
2022/08/20 09:51:31;;;;;;;3.27;2.80;;;;;;;;;;5010268;28;20168;-81
2022/08/20 09:53:56;;;;;;;3.73;3.20;;;;;;;;;;5012714;28;20176;-83
2022/08/20 09:56:22;;;;;;;4.03;3.07;;;;;;;;;;5022557;28;20223;-74
2022/08/20 09:58:49;;;;;;;3.20;2.90;;;;;;;;;;5008231;28;20224;-74
2022/08/20 10:01:16;;;;;;;2.60;2.40;;;;;;;;;;5021004;28;20183;-74
2022/08/20 10:03:41;;;;;;;3.83;3.23;;;;;;;;;;5008075;28;20181;-74
2022/08/20 10:06:07;;;;;;;3.00;2.80;;;;;;;;;;5007446;28;20256;-74
2022/08/20 10:08:32;;;;;;;2.87;2.67;;;;;;;;;;5020222;28;20192;-75
2022/08/20 10:10:57;;;;;;;3.30;3.00;;;;;;;;;;5008864;28;20185;-74
2022/08/20 10:13:23;;;;;;;3.00;2.70;;;;;;;;;;5028078;28;20189;-73
2022/08/20 10:15:48;;;;;;;3.20;2.47;;;;;;;;;;5009934;28;20182;-74
2022/08/20 10:18:13;;;;;;;2.33;2.23;;;;;;;;;;5010678;28;20193;-73
2022/08/20 10:20:38;;;;;;;2.93;2.63;;;;;;;;;;5010823;28;20188;-74
2022/08/20 10:23:04;;;;;;;1.90;1.80;;;;;;;;;;5005073;28;20188;-76
2022/08/20 10:25:29;;;;;;;2.03;1.93;;;;;;;;;;5010370;28;20174;-74
2022/08/20 10:27:55;;;;;;;2.00;1.80;;;;;;;;;;5010951;28;20190;-74
2022/08/20 10:30:20;;;;;;;1.90;1.80;;;;;;;;;;5010496;28;20190;-75
2022/08/20 10:32:46;;;;;;;1.60;1.50;;;;;;;;;;5007280;28;20186;-74
2022/08/20 10:35:11;;;;;;;1.73;1.63;;;;;;;;;;5007311;28;20336;-74
2022/08/20 10:37:37;;;;;;;1.60;1.47;;;;;;;;;;5008834;28;20341;-75
2022/08/20 10:40:03;;;;;;;1.43;1.33;;;;;;;;;;5005480;28;20265;-74
2022/08/20 10:42:28;;;;;;;1.70;1.60;;;;;;;;;;5008957;28;20193;-74
2022/08/20 10:44:53;;;;;;;1.60;1.37;;;;;;;;;;5010879;28;20174;-74
2022/08/20 10:47:23;;;;;;;1.57;1.47;;;;;;;;;;5009545;28;20267;-74
2022/08/20 10:49:50;;;;;;;1.00;1.00;;;;;;;;;;5006979;28;20189;-75
2022/08/20 10:52:15;;;;;;;1.67;1.43;;;;;;;;;;5021861;28;20182;-74
2022/08/20 10:54:41;;;;;;;1.60;1.50;;;;;;;;;;5010171;28;20192;-74
2022/08/20 10:57:07;;;;;;;1.13;1.00;;;;;;;;;;5024767;28;20199;-73
2022/08/20 10:59:36;;;;;;;1.53;1.43;;;;;;;;;;5009672;28;20276;-74
2022/08/20 11:02:01;;;;;;;1.23;1.20;;;;;;;;;;5013146;28;20261;-74
2022/08/20 11:04:26;;;;;;;1.40;1.30;;;;;;;;;;5010118;28;20284;-74
2022/08/20 11:06:51;;;;;;;1.50;1.40;;;;;;;;;;5012382;28;20174;-74
2022/08/20 11:09:17;;;;;;;1.40;1.30;;;;;;;;;;5017745;28;20198;-73
2022/08/20 11:11:42;;;;;;;1.40;1.30;;;;;;;;;;5012512;28;20177;-73
2022/08/20 11:14:07;;;;;;;1.40;1.30;;;;;;;;;;5010539;28;20274;-75
2022/08/20 11:16:32;;;;;;;1.70;1.57;;;;;;;;;;5012188;28;20185;-74
2022/08/20 11:18:57;;;;;;;1.60;1.50;;;;;;;;;;5012108;28;20229;-74
2022/08/20 11:21:23;;;;;;;1.80;1.70;;;;;;;;;;5008617;28;20230;-74
2022/08/20 11:23:48;;;;;;;1.70;1.60;;;;;;;;;;5007201;28;20321;-74
2022/08/20 11:26:18;;;;;;;1.90;1.80;;;;;;;;;;5009082;28;20172;-75
2022/08/20 11:28:43;;;;;;;1.90;1.80;;;;;;;;;;5009345;28;20256;-73
2022/08/20 11:31:08;;;;;;;1.90;1.80;;;;;;;;;;5009901;28;20186;-74
2022/08/20 11:33:33;;;;;;;2.00;1.70;;;;;;;;;;5002467;28;20273;-73
2022/08/20 11:35:58;;;;;;;2.37;1.77;;;;;;;;;;5011099;28;20183;-73
2022/08/20 11:38:24;;;;;;;1.40;1.30;;;;;;;;;;5024684;28;20207;-74
2022/08/20 11:40:49;;;;;;;1.50;1.40;;;;;;;;;;5013801;28;20167;-73
2022/08/20 11:43:14;;;;;;;1.53;1.43;;;;;;;;;;5005328;28;20168;-73
2022/08/20 11:45:40;;;;;;;1.50;1.40;;;;;;;;;;5007194;28;20164;-74
2022/08/20 11:48:05;;;;;;;1.80;1.70;;;;;;;;;;5024824;28;20287;-74
2022/08/20 11:50:30;;;;;;;2.50;2.40;;;;;;;;;;5008797;28;20274;-74
2022/08/20 11:52:55;;;;;;;3.33;2.97;;;;;;;;;;5008669;28;20183;-73
2022/08/20 11:55:21;;;;;;;3.03;2.80;;;;;;;;;;5011062;28;20222;-73
2022/08/20 11:57:46;;;;;;;3.00;2.80;;;;;;;;;;5010582;28;20296;-74
2022/08/20 12:00:14;;;;;;;3.43;3.13;;;;;;;;;;5010329;28;20184;-74
2022/08/20 12:02:40;;;;;;;2.50;2.30;;;;;;;;;;5011241;28;20178;-73
2022/08/20 12:05:05;;;;;;;2.53;2.40;;;;;;;;;;5007889;28;20179;-73
2022/08/20 12:07:30;;;;;;;3.43;2.97;;;;;;;;;;5026991;28;20183;-74
2022/08/20 12:09:55;;;;;;;3.20;3.00;;;;;;;;;;5022947;28;20193;-73
2022/08/20 12:12:22;;;;;;;2.33;2.23;;;;;;;;;;5012051;28;20197;-73
2022/08/20 12:14:48;;;;;;;3.00;2.70;;;;;;;;;;5011202;28;20251;-73
2022/08/20 12:17:18;;;;;;;2.77;2.40;;;;;;;;;;5010813;28;20294;-74
2022/08/20 12:19:44;;;;;;;2.70;2.50;;;;;;;;;;5009263;28;20479;-74
2022/08/20 12:22:10;;;;;;;4.00;2.90;;;;;;;;;;5007581;28;20177;-73
2022/08/20 12:24:35;;;;;;;3.27;3.07;;;;;;;;;;5010665;28;20176;-74
2022/08/20 12:27:10;;;;;;;3.13;2.87;;;;;;;;;;5010578;28;20183;-74
2022/08/20 12:29:37;;;;;;;3.63;3.40;;;;;;;;;;5009848;28;20209;-73
2022/08/20 12:32:04;;;;;;;2.83;2.63;;;;;;;;;;5014738;28;20177;-73
2022/08/20 12:34:30;;;;;;;3.13;2.70;;;;;;;;;;5004417;28;20205;-74
2022/08/20 12:36:59;;;;;;;3.10;2.80;;;;;;;;;;5006177;28;20181;-74
2022/08/20 12:39:24;;;;;;;2.60;2.40;;;;;;;;;;5019026;28;20241;-74
2022/08/20 12:41:51;;;;;;;2.67;2.47;;;;;;;;;;5008674;28;20172;-73
2022/08/20 12:44:17;;;;;;;2.67;2.47;;;;;;;;;;5008235;28;20226;-73
2022/08/20 12:46:42;;;;;;;2.87;2.57;;;;;;;;;;5005445;28;20187;-73
2022/08/20 12:49:07;;;;;;;2.60;2.40;;;;;;;;;;5010167;28;20171;-73
2022/08/20 12:51:32;;;;;;;2.30;2.10;;;;;;;;;;5009438;28;20260;-74
2022/08/20 12:53:57;;;;;;;2.53;2.33;;;;;;;;;;5024757;28;20180;-75
2022/08/20 12:56:23;;;;;;;2.20;2.10;;;;;;;;;;5010709;28;20183;-73
2022/08/20 12:58:48;;;;;;;2.27;2.10;;;;;;;;;;5007301;28;20227;-74
2022/08/20 13:01:14;;;;;;;2.17;1.90;;;;;;;;;;5017551;28;20177;-73
2022/08/20 13:03:39;;;;;;;1.90;1.80;;;;;;;;;;5018605;28;20180;-74
2022/08/20 13:06:04;;;;;;;2.00;1.90;;;;;;;;;;5006181;28;20246;-73
2022/08/20 13:08:30;;;;;;;2.07;1.97;;;;;;;;;;5004677;28;20275;-75
2022/08/20 13:10:55;;;;;;;2.13;2.03;;;;;;;;;;5021644;28;20178;-75
2022/08/20 13:13:23;;;;;;;2.90;1.87;;;;;;;;;;5005561;28;20238;-74
2022/08/20 13:15:49;;;;;;;1.80;1.70;;;;;;;;;;5006847;28;20193;-75
2022/08/20 13:18:14;;;;;;;1.67;1.57;;;;;;;;;;5007008;28;20210;-74
2022/08/20 13:20:40;;;;;;;1.67;1.37;;;;;;;;;;5004810;28;20189;-73
2022/08/20 13:23:05;;;;;;;2.60;1.40;;;;;;;;;;5002251;28;20176;-74
2022/08/20 13:25:31;;;;;;;1.57;1.40;;;;;;;;;;5006612;28;20177;-74
2022/08/20 13:27:57;;;;;;;1.60;1.50;;;;;;;;;;5008564;28;20234;-74
2022/08/20 13:30:23;;;;;;;1.37;1.27;;;;;;;;;;5009183;28;20185;-74
2022/08/20 13:32:48;;;;;;;1.30;1.20;;;;;;;;;;5006595;28;20237;-74
2022/08/20 13:35:13;;;;;;;1.23;1.13;;;;;;;;;;5010421;28;20190;-74
2022/08/20 13:37:39;;;;;;;1.27;1.17;;;;;;;;;;5004891;28;20203;-74
2022/08/20 13:40:07;;;;;;;1.23;1.13;;;;;;;;;;5007941;28;20176;-75
2022/08/20 13:42:32;;;;;;;2.73;1.40;;;;;;;;;;5013743;28;20189;-74
2022/08/20 13:45:00;;;;;;;1.37;1.27;;;;;;;;;;5014086;28;20182;-73
2022/08/20 13:47:27;;;;;;;1.50;1.40;;;;;;;;;;5009573;28;20251;-74
2022/08/20 13:50:01;;;;;;;1.30;1.30;;;;;;;;;;5013670;28;20179;-74
2022/08/20 13:52:27;;;;;;;1.10;1.10;;;;;;;;;;5007160;28;20613;-75
2022/08/20 13:54:52;;;;;;;1.25;1.15;;;;;;;;;;5014652;28;20182;-74
2022/08/20 13:57:19;;;;;;;1.65;1.10;;;;;;;;;;5010958;28;20199;-74
2022/08/20 13:59:45;;;;;;;1.20;1.15;;;;;;;;;;5010100;28;20179;-74
2022/08/20 14:02:11;;;;;;;1.85;1.00;;;;;;;;;;5023953;28;20278;-74
2022/08/20 14:04:37;;;;;;;1.05;1.05;;;;;;;;;;5008849;28;20267;-74
2022/08/20 14:07:13;;;;;;;1.05;0.95;;;;;;;;;;5017557;28;20298;-73
2022/08/20 14:09:39;;;;;;;1.00;1.00;;;;;;;;;;5010314;28;20186;-74
2022/08/20 14:12:04;;;;;;;1.10;1.10;;;;;;;;;;5008663;28;20178;-72
2022/08/20 14:14:30;;;;;;;0.90;0.90;;;;;;;;;;5011054;28;20182;-72
2022/08/20 14:16:55;;;;;;;1.10;1.00;;;;;;;;;;5012915;28;20225;-72
2022/08/20 14:19:20;;;;;;;0.90;0.90;;;;;;;;;;5012170;28;20175;-72
2022/08/20 14:21:45;;;;;;;1.10;1.10;;;;;;;;;;5010357;28;20271;-73
2022/08/20 14:24:10;;;;;;;0.90;0.90;;;;;;;;;;5014259;28;20206;-73
2022/08/20 14:26:36;;;;;;;1.08;0.98;;;;;;;;;;5010289;28;20172;-73
2022/08/20 14:29:02;;;;;;;2.03;1.33;;;;;;;;;;5011300;28;20188;-72
2022/08/20 14:31:27;;;;;;;1.70;1.33;;;;;;;;;;5013115;28;20186;-73
2022/08/20 14:33:52;;;;;;;1.00;1.00;;;;;;;;;;5013216;28;20203;-73
2022/08/20 14:36:17;;;;;;;1.13;1.02;;;;;;;;;;5013559;28;20253;-72
2022/08/20 14:38:44;;;;;;;1.83;1.23;;;;;;;;;;5018593;28;20309;-74
2022/08/20 14:41:09;;;;;;;2.15;1.08;;;;;;;;;;5010136;28;20190;-72
2022/08/20 14:43:34;;;;;;;0.90;0.90;;;;;;;;;;5011169;28;20179;-72
2022/08/20 14:46:00;;;;;;;1.30;1.23;;;;;;;;;;5013591;28;20210;-72
2022/08/20 14:48:27;;;;;;;1.20;1.10;;;;;;;;;;5012016;28;20274;-72